sensor_id;sensor_type;location;lat;lon;timestamp;P1;durP1;ratioP1;P2;durP2;ratioP2
54871;SDS011;43914;57.680;11.982;2023-11-19T00:02:13;6.30;;;2.20;;
54871;SDS011;43914;57.680;11.982;2023-11-19T00:04:38;6.40;;;2.20;;
54871;SDS011;43914;57.680;11.982;2023-11-19T00:07:05;6.00;;;2.10;;
54871;SDS011;43914;57.680;11.982;2023-11-19T00:09:32;6.10;;;2.10;;
54871;SDS011;43914;57.680;11.982;2023-11-19T00:12:02;6.20;;;2.10;;
54871;SDS011;43914;57.680;11.982;2023-11-19T00:14:29;5.70;;;1.90;;
54871;SDS011;43914;57.680;11.982;2023-11-19T00:16:55;6.40;;;2.40;;
54871;SDS011;43914;57.680;11.982;2023-11-19T00:19:21;5.80;;;2.10;;
54871;SDS011;43914;57.680;11.982;2023-11-19T00:21:46;6.50;;;2.50;;
54871;SDS011;43914;57.680;11.982;2023-11-19T00:24:12;7.20;;;2.40;;
54871;SDS011;43914;57.680;11.982;2023-11-19T00:26:38;6.10;;;2.00;;
54871;SDS011;43914;57.680;11.982;2023-11-19T00:29:04;5.70;;;2.00;;
54871;SDS011;43914;57.680;11.982;2023-11-19T00:31:29;6.40;;;2.10;;
54871;SDS011;43914;57.680;11.982;2023-11-19T00:33:55;5.90;;;2.20;;
54871;SDS011;43914;57.680;11.982;2023-11-19T00:36:20;6.00;;;2.00;;
54871;SDS011;43914;57.680;11.982;2023-11-19T00:38:46;5.80;;;1.80;;
54871;SDS011;43914;57.680;11.982;2023-11-19T00:41:11;5.70;;;1.80;;
54871;SDS011;43914;57.680;11.982;2023-11-19T00:43:36;6.40;;;2.10;;
54871;SDS011;43914;57.680;11.982;2023-11-19T00:46:02;5.50;;;2.00;;
54871;SDS011;43914;57.680;11.982;2023-11-19T00:48:29;7.30;;;2.20;;
54871;SDS011;43914;57.680;11.982;2023-11-19T00:50:54;6.50;;;2.20;;
54871;SDS011;43914;57.680;11.982;2023-11-19T00:53:20;6.10;;;2.20;;
54871;SDS011;43914;57.680;11.982;2023-11-19T00:55:45;5.90;;;2.10;;
54871;SDS011;43914;57.680;11.982;2023-11-19T00:58:11;6.00;;;2.30;;
54871;SDS011;43914;57.680;11.982;2023-11-19T01:00:36;6.30;;;2.50;;
54871;SDS011;43914;57.680;11.982;2023-11-19T01:03:02;5.60;;;1.90;;
54871;SDS011;43914;57.680;11.982;2023-11-19T01:05:27;5.90;;;2.10;;
54871;SDS011;43914;57.680;11.982;2023-11-19T01:07:53;7.40;;;2.10;;
54871;SDS011;43914;57.680;11.982;2023-11-19T01:10:19;5.30;;;1.80;;
54871;SDS011;43914;57.680;11.982;2023-11-19T01:12:45;6.10;;;2.10;;
54871;SDS011;43914;57.680;11.982;2023-11-19T01:15:12;5.50;;;2.00;;
54871;SDS011;43914;57.680;11.982;2023-11-19T01:17:38;6.40;;;1.80;;
54871;SDS011;43914;57.680;11.982;2023-11-19T01:20:04;5.60;;;2.00;;
54871;SDS011;43914;57.680;11.982;2023-11-19T01:22:32;6.70;;;2.00;;
54871;SDS011;43914;57.680;11.982;2023-11-19T01:24:58;6.60;;;2.20;;
54871;SDS011;43914;57.680;11.982;2023-11-19T01:27:24;7.00;;;2.10;;
54871;SDS011;43914;57.680;11.982;2023-11-19T01:29:49;6.20;;;2.20;;
54871;SDS011;43914;57.680;11.982;2023-11-19T01:32:15;6.20;;;2.10;;
54871;SDS011;43914;57.680;11.982;2023-11-19T01:34:41;6.10;;;2.00;;
54871;SDS011;43914;57.680;11.982;2023-11-19T01:37:06;5.80;;;2.00;;
54871;SDS011;43914;57.680;11.982;2023-11-19T01:39:34;6.50;;;2.00;;
54871;SDS011;43914;57.680;11.982;2023-11-19T01:42:00;5.50;;;1.90;;
54871;SDS011;43914;57.680;11.982;2023-11-19T01:44:25;5.90;;;1.90;;
54871;SDS011;43914;57.680;11.982;2023-11-19T01:46:51;5.60;;;2.00;;
54871;SDS011;43914;57.680;11.982;2023-11-19T01:49:17;5.50;;;1.80;;
54871;SDS011;43914;57.680;11.982;2023-11-19T01:51:44;6.70;;;2.10;;
54871;SDS011;43914;57.680;11.982;2023-11-19T01:54:10;6.90;;;2.20;;
54871;SDS011;43914;57.680;11.982;2023-11-19T01:56:40;5.80;;;2.10;;
54871;SDS011;43914;57.680;11.982;2023-11-19T01:59:07;5.30;;;2.00;;
54871;SDS011;43914;57.680;11.982;2023-11-19T02:01:34;5.40;;;1.90;;
54871;SDS011;43914;57.680;11.982;2023-11-19T02:04:04;6.40;;;2.20;;
54871;SDS011;43914;57.680;11.982;2023-11-19T02:06:31;6.30;;;2.00;;
54871;SDS011;43914;57.680;11.982;2023-11-19T02:08:59;6.00;;;2.20;;
54871;SDS011;43914;57.680;11.982;2023-11-19T02:11:26;6.70;;;2.00;;
54871;SDS011;43914;57.680;11.982;2023-11-19T02:13:57;7.30;;;2.20;;
54871;SDS011;43914;57.680;11.982;2023-11-19T02:16:22;5.50;;;1.90;;
54871;SDS011;43914;57.680;11.982;2023-11-19T02:18:48;5.40;;;2.00;;
54871;SDS011;43914;57.680;11.982;2023-11-19T02:21:15;5.80;;;1.90;;
54871;SDS011;43914;57.680;11.982;2023-11-19T02:23:43;5.70;;;1.70;;
54871;SDS011;43914;57.680;11.982;2023-11-19T02:28:52;6.60;;;2.20;;
54871;SDS011;43914;57.680;11.982;2023-11-19T02:31:18;5.40;;;1.80;;
54871;SDS011;43914;57.680;11.982;2023-11-19T02:33:44;5.10;;;1.80;;
54871;SDS011;43914;57.680;11.982;2023-11-19T02:36:09;5.70;;;1.90;;
54871;SDS011;43914;57.680;11.982;2023-11-19T02:38:35;5.20;;;1.70;;
54871;SDS011;43914;57.680;11.982;2023-11-19T02:41:03;5.60;;;1.80;;
54871;SDS011;43914;57.680;11.982;2023-11-19T02:43:31;5.60;;;1.80;;
54871;SDS011;43914;57.680;11.982;2023-11-19T02:46:03;6.30;;;2.00;;
54871;SDS011;43914;57.680;11.982;2023-11-19T02:48:35;6.50;;;1.90;;
54871;SDS011;43914;57.680;11.982;2023-11-19T02:51:04;5.60;;;1.90;;
54871;SDS011;43914;57.680;11.982;2023-11-19T02:53:34;5.30;;;1.80;;
54871;SDS011;43914;57.680;11.982;2023-11-19T02:56:00;5.70;;;1.90;;
54871;SDS011;43914;57.680;11.982;2023-11-19T02:58:31;7.00;;;1.60;;
54871;SDS011;43914;57.680;11.982;2023-11-19T03:00:57;5.20;;;1.90;;
54871;SDS011;43914;57.680;11.982;2023-11-19T03:03:24;6.30;;;1.80;;
54871;SDS011;43914;57.680;11.982;2023-11-19T03:05:56;5.80;;;1.80;;
54871;SDS011;43914;57.680;11.982;2023-11-19T03:08:22;5.20;;;1.70;;
54871;SDS011;43914;57.680;11.982;2023-11-19T03:10:47;5.00;;;1.60;;
54871;SDS011;43914;57.680;11.982;2023-11-19T03:13:14;6.30;;;1.70;;
54871;SDS011;43914;57.680;11.982;2023-11-19T03:15:41;6.50;;;1.90;;
54871;SDS011;43914;57.680;11.982;2023-11-19T03:18:06;5.10;;;1.80;;
54871;SDS011;43914;57.680;11.982;2023-11-19T03:20:32;4.50;;;1.60;;
54871;SDS011;43914;57.680;11.982;2023-11-19T03:22:58;5.70;;;1.80;;
54871;SDS011;43914;57.680;11.982;2023-11-19T03:25:27;5.50;;;1.80;;
54871;SDS011;43914;57.680;11.982;2023-11-19T03:27:58;6.60;;;1.80;;
54871;SDS011;43914;57.680;11.982;2023-11-19T03:30:29;6.00;;;1.80;;
54871;SDS011;43914;57.680;11.982;2023-11-19T03:32:57;5.10;;;1.70;;
54871;SDS011;43914;57.680;11.982;2023-11-19T03:35:24;6.20;;;1.80;;
54871;SDS011;43914;57.680;11.982;2023-11-19T03:37:50;5.40;;;1.70;;
54871;SDS011;43914;57.680;11.982;2023-11-19T03:40:16;6.30;;;2.00;;
54871;SDS011;43914;57.680;11.982;2023-11-19T03:42:44;5.40;;;1.90;;
54871;SDS011;43914;57.680;11.982;2023-11-19T03:45:10;5.60;;;1.90;;
54871;SDS011;43914;57.680;11.982;2023-11-19T03:47:37;6.30;;;1.90;;
54871;SDS011;43914;57.680;11.982;2023-11-19T03:50:03;6.00;;;1.80;;
54871;SDS011;43914;57.680;11.982;2023-11-19T03:52:30;6.10;;;2.00;;
54871;SDS011;43914;57.680;11.982;2023-11-19T03:54:55;5.60;;;1.80;;
54871;SDS011;43914;57.680;11.982;2023-11-19T03:57:22;5.80;;;1.80;;
54871;SDS011;43914;57.680;11.982;2023-11-19T03:59:48;6.10;;;2.00;;
54871;SDS011;43914;57.680;11.982;2023-11-19T04:02:14;7.20;;;2.10;;
54871;SDS011;43914;57.680;11.982;2023-11-19T04:04:40;5.50;;;1.70;;
54871;SDS011;43914;57.680;11.982;2023-11-19T04:07:06;6.20;;;1.90;;
54871;SDS011;43914;57.680;11.982;2023-11-19T04:09:31;5.80;;;1.90;;
54871;SDS011;43914;57.680;11.982;2023-11-19T04:12:00;6.20;;;1.90;;
54871;SDS011;43914;57.680;11.982;2023-11-19T04:14:26;5.90;;;1.90;;
54871;SDS011;43914;57.680;11.982;2023-11-19T04:16:52;7.00;;;2.20;;
54871;SDS011;43914;57.680;11.982;2023-11-19T04:19:18;5.00;;;1.70;;
54871;SDS011;43914;57.680;11.982;2023-11-19T04:21:44;4.90;;;1.80;;
54871;SDS011;43914;57.680;11.982;2023-11-19T04:24:12;5.90;;;2.10;;
54871;SDS011;43914;57.680;11.982;2023-11-19T04:26:40;6.10;;;2.10;;
54871;SDS011;43914;57.680;11.982;2023-11-19T04:29:11;6.20;;;2.00;;
54871;SDS011;43914;57.680;11.982;2023-11-19T04:31:44;6.40;;;2.10;;
54871;SDS011;43914;57.680;11.982;2023-11-19T04:34:11;5.80;;;1.80;;
54871;SDS011;43914;57.680;11.982;2023-11-19T04:36:37;6.30;;;2.20;;
54871;SDS011;43914;57.680;11.982;2023-11-19T04:39:03;5.40;;;1.80;;
54871;SDS011;43914;57.680;11.982;2023-11-19T04:41:47;5.50;;;2.00;;
54871;SDS011;43914;57.680;11.982;2023-11-19T04:44:14;7.90;;;2.40;;
54871;SDS011;43914;57.680;11.982;2023-11-19T04:46:41;5.70;;;1.90;;
54871;SDS011;43914;57.680;11.982;2023-11-19T04:49:09;6.60;;;2.10;;
54871;SDS011;43914;57.680;11.982;2023-11-19T04:51:42;6.50;;;2.30;;
54871;SDS011;43914;57.680;11.982;2023-11-19T04:54:09;6.30;;;1.90;;
54871;SDS011;43914;57.680;11.982;2023-11-19T04:56:35;5.60;;;1.80;;
54871;SDS011;43914;57.680;11.982;2023-11-19T04:59:03;6.20;;;2.10;;
54871;SDS011;43914;57.680;11.982;2023-11-19T05:01:30;6.80;;;2.10;;
54871;SDS011;43914;57.680;11.982;2023-11-19T05:03:56;5.60;;;1.80;;
54871;SDS011;43914;57.680;11.982;2023-11-19T05:06:28;5.00;;;1.60;;
54871;SDS011;43914;57.680;11.982;2023-11-19T05:08:59;7.10;;;2.10;;
54871;SDS011;43914;57.680;11.982;2023-11-19T05:11:43;5.80;;;1.80;;
54871;SDS011;43914;57.680;11.982;2023-11-19T05:14:08;6.50;;;2.20;;
54871;SDS011;43914;57.680;11.982;2023-11-19T05:16:34;5.90;;;2.10;;
54871;SDS011;43914;57.680;11.982;2023-11-19T05:19:00;6.40;;;1.90;;
54871;SDS011;43914;57.680;11.982;2023-11-19T05:21:25;7.10;;;2.10;;
54871;SDS011;43914;57.680;11.982;2023-11-19T05:23:51;8.30;;;2.10;;
54871;SDS011;43914;57.680;11.982;2023-11-19T05:26:17;6.10;;;1.80;;
54871;SDS011;43914;57.680;11.982;2023-11-19T05:28:46;5.60;;;2.00;;
54871;SDS011;43914;57.680;11.982;2023-11-19T05:31:12;6.70;;;2.00;;
54871;SDS011;43914;57.680;11.982;2023-11-19T05:33:38;4.20;;;1.60;;
54871;SDS011;43914;57.680;11.982;2023-11-19T05:36:04;5.80;;;2.00;;
54871;SDS011;43914;57.680;11.982;2023-11-19T05:38:30;6.60;;;2.00;;
54871;SDS011;43914;57.680;11.982;2023-11-19T05:40:55;5.40;;;1.70;;
54871;SDS011;43914;57.680;11.982;2023-11-19T05:43:21;5.90;;;1.70;;
54871;SDS011;43914;57.680;11.982;2023-11-19T05:45:48;5.00;;;1.70;;
54871;SDS011;43914;57.680;11.982;2023-11-19T05:48:13;5.80;;;1.80;;
54871;SDS011;43914;57.680;11.982;2023-11-19T05:50:39;6.00;;;2.00;;
54871;SDS011;43914;57.680;11.982;2023-11-19T05:53:04;7.00;;;2.20;;
54871;SDS011;43914;57.680;11.982;2023-11-19T05:55:34;5.20;;;1.70;;
54871;SDS011;43914;57.680;11.982;2023-11-19T05:58:01;5.60;;;1.70;;
54871;SDS011;43914;57.680;11.982;2023-11-19T06:00:26;5.60;;;1.70;;
54871;SDS011;43914;57.680;11.982;2023-11-19T06:02:52;5.60;;;1.80;;
54871;SDS011;43914;57.680;11.982;2023-11-19T06:05:17;4.90;;;1.60;;
54871;SDS011;43914;57.680;11.982;2023-11-19T06:07:43;6.20;;;2.00;;
54871;SDS011;43914;57.680;11.982;2023-11-19T06:10:09;4.90;;;1.50;;
54871;SDS011;43914;57.680;11.982;2023-11-19T06:12:35;5.70;;;1.90;;
54871;SDS011;43914;57.680;11.982;2023-11-19T06:15:07;5.50;;;1.80;;
54871;SDS011;43914;57.680;11.982;2023-11-19T06:17:36;5.00;;;1.70;;
54871;SDS011;43914;57.680;11.982;2023-11-19T06:20:01;5.40;;;1.90;;
54871;SDS011;43914;57.680;11.982;2023-11-19T06:22:29;6.70;;;2.00;;
54871;SDS011;43914;57.680;11.982;2023-11-19T06:24:55;5.20;;;1.70;;
54871;SDS011;43914;57.680;11.982;2023-11-19T06:27:21;5.60;;;1.80;;
54871;SDS011;43914;57.680;11.982;2023-11-19T06:29:47;6.00;;;1.80;;
54871;SDS011;43914;57.680;11.982;2023-11-19T06:32:13;4.80;;;1.60;;
54871;SDS011;43914;57.680;11.982;2023-11-19T06:34:38;6.40;;;1.90;;
54871;SDS011;43914;57.680;11.982;2023-11-19T06:37:04;5.40;;;1.80;;
54871;SDS011;43914;57.680;11.982;2023-11-19T06:39:29;7.00;;;2.20;;
54871;SDS011;43914;57.680;11.982;2023-11-19T06:41:55;6.30;;;1.80;;
54871;SDS011;43914;57.680;11.982;2023-11-19T06:44:21;5.80;;;1.90;;
54871;SDS011;43914;57.680;11.982;2023-11-19T06:46:48;5.80;;;1.80;;
54871;SDS011;43914;57.680;11.982;2023-11-19T06:49:13;7.40;;;2.40;;
54871;SDS011;43914;57.680;11.982;2023-11-19T06:51:42;6.30;;;2.20;;
54871;SDS011;43914;57.680;11.982;2023-11-19T06:54:09;4.10;;;1.40;;
54871;SDS011;43914;57.680;11.982;2023-11-19T06:56:35;6.10;;;1.80;;
54871;SDS011;43914;57.680;11.982;2023-11-19T06:59:02;5.70;;;1.90;;
54871;SDS011;43914;57.680;11.982;2023-11-19T07:01:28;5.90;;;2.00;;
54871;SDS011;43914;57.680;11.982;2023-11-19T07:03:53;5.30;;;1.80;;
54871;SDS011;43914;57.680;11.982;2023-11-19T07:06:19;5.40;;;1.80;;
54871;SDS011;43914;57.680;11.982;2023-11-19T07:08:44;5.80;;;1.80;;
54871;SDS011;43914;57.680;11.982;2023-11-19T07:11:13;8.20;;;1.90;;
54871;SDS011;43914;57.680;11.982;2023-11-19T07:13:42;5.00;;;1.70;;
54871;SDS011;43914;57.680;11.982;2023-11-19T07:16:07;5.60;;;2.10;;
54871;SDS011;43914;57.680;11.982;2023-11-19T07:18:35;5.60;;;1.90;;
54871;SDS011;43914;57.680;11.982;2023-11-19T07:21:00;6.50;;;2.10;;
54871;SDS011;43914;57.680;11.982;2023-11-19T07:23:28;5.30;;;1.70;;
54871;SDS011;43914;57.680;11.982;2023-11-19T07:25:53;5.40;;;1.90;;
54871;SDS011;43914;57.680;11.982;2023-11-19T07:28:18;6.10;;;1.90;;
54871;SDS011;43914;57.680;11.982;2023-11-19T07:30:44;6.90;;;2.20;;
54871;SDS011;43914;57.680;11.982;2023-11-19T07:33:09;6.50;;;2.10;;
54871;SDS011;43914;57.680;11.982;2023-11-19T07:35:35;5.80;;;2.10;;
54871;SDS011;43914;57.680;11.982;2023-11-19T07:38:00;5.90;;;2.10;;
54871;SDS011;43914;57.680;11.982;2023-11-19T07:40:26;5.40;;;1.90;;
54871;SDS011;43914;57.680;11.982;2023-11-19T07:42:51;6.20;;;2.00;;
54871;SDS011;43914;57.680;11.982;2023-11-19T07:45:17;6.90;;;2.10;;
54871;SDS011;43914;57.680;11.982;2023-11-19T07:47:43;6.70;;;2.20;;
54871;SDS011;43914;57.680;11.982;2023-11-19T07:50:10;7.10;;;2.20;;
54871;SDS011;43914;57.680;11.982;2023-11-19T07:52:38;6.90;;;2.30;;
54871;SDS011;43914;57.680;11.982;2023-11-19T07:55:04;6.70;;;2.10;;
54871;SDS011;43914;57.680;11.982;2023-11-19T07:57:30;6.10;;;2.20;;
54871;SDS011;43914;57.680;11.982;2023-11-19T07:59:59;6.20;;;2.10;;
54871;SDS011;43914;57.680;11.982;2023-11-19T08:02:26;6.50;;;2.50;;
54871;SDS011;43914;57.680;11.982;2023-11-19T08:04:52;7.30;;;2.40;;
54871;SDS011;43914;57.680;11.982;2023-11-19T08:07:20;6.40;;;2.40;;
54871;SDS011;43914;57.680;11.982;2023-11-19T08:09:46;8.80;;;2.40;;
54871;SDS011;43914;57.680;11.982;2023-11-19T08:12:12;6.40;;;2.40;;
54871;SDS011;43914;57.680;11.982;2023-11-19T08:14:40;7.20;;;2.20;;
54871;SDS011;43914;57.680;11.982;2023-11-19T08:17:06;6.90;;;2.40;;
54871;SDS011;43914;57.680;11.982;2023-11-19T08:19:32;7.50;;;2.50;;
54871;SDS011;43914;57.680;11.982;2023-11-19T08:21:58;6.40;;;2.40;;
54871;SDS011;43914;57.680;11.982;2023-11-19T08:24:23;7.10;;;2.60;;
54871;SDS011;43914;57.680;11.982;2023-11-19T08:26:48;6.00;;;2.10;;
54871;SDS011;43914;57.680;11.982;2023-11-19T08:29:14;6.10;;;2.20;;
54871;SDS011;43914;57.680;11.982;2023-11-19T08:31:39;7.20;;;2.60;;
54871;SDS011;43914;57.680;11.982;2023-11-19T08:34:05;5.90;;;2.20;;
54871;SDS011;43914;57.680;11.982;2023-11-19T08:36:33;8.00;;;2.50;;
54871;SDS011;43914;57.680;11.982;2023-11-19T08:38:59;7.50;;;2.60;;
54871;SDS011;43914;57.680;11.982;2023-11-19T08:41:25;5.80;;;2.30;;
54871;SDS011;43914;57.680;11.982;2023-11-19T08:43:50;7.70;;;2.30;;
54871;SDS011;43914;57.680;11.982;2023-11-19T08:46:16;6.90;;;2.40;;
54871;SDS011;43914;57.680;11.982;2023-11-19T08:48:42;5.60;;;2.20;;
54871;SDS011;43914;57.680;11.982;2023-11-19T08:51:07;6.00;;;2.30;;
54871;SDS011;43914;57.680;11.982;2023-11-19T08:53:33;6.20;;;2.40;;
54871;SDS011;43914;57.680;11.982;2023-11-19T08:55:59;7.10;;;2.30;;
54871;SDS011;43914;57.680;11.982;2023-11-19T08:58:25;6.70;;;2.50;;
54871;SDS011;43914;57.680;11.982;2023-11-19T09:00:51;6.30;;;2.30;;
54871;SDS011;43914;57.680;11.982;2023-11-19T09:03:16;6.90;;;2.80;;
54871;SDS011;43914;57.680;11.982;2023-11-19T09:05:42;6.90;;;2.50;;
54871;SDS011;43914;57.680;11.982;2023-11-19T09:08:08;6.90;;;2.30;;
54871;SDS011;43914;57.680;11.982;2023-11-19T09:10:33;6.60;;;2.60;;
54871;SDS011;43914;57.680;11.982;2023-11-19T09:12:59;6.90;;;2.50;;
54871;SDS011;43914;57.680;11.982;2023-11-19T09:15:24;7.10;;;2.60;;
54871;SDS011;43914;57.680;11.982;2023-11-19T09:17:50;6.80;;;2.40;;
54871;SDS011;43914;57.680;11.982;2023-11-19T09:20:15;8.20;;;2.70;;
54871;SDS011;43914;57.680;11.982;2023-11-19T09:22:41;6.40;;;2.60;;
54871;SDS011;43914;57.680;11.982;2023-11-19T09:25:07;7.70;;;2.80;;
54871;SDS011;43914;57.680;11.982;2023-11-19T09:27:33;7.10;;;2.60;;
54871;SDS011;43914;57.680;11.982;2023-11-19T09:29:59;6.00;;;2.00;;
54871;SDS011;43914;57.680;11.982;2023-11-19T09:32:24;7.70;;;2.80;;
54871;SDS011;43914;57.680;11.982;2023-11-19T09:34:50;7.00;;;2.40;;
54871;SDS011;43914;57.680;11.982;2023-11-19T09:37:16;6.70;;;2.40;;
54871;SDS011;43914;57.680;11.982;2023-11-19T09:39:41;6.20;;;2.40;;
54871;SDS011;43914;57.680;11.982;2023-11-19T09:42:11;6.50;;;2.40;;
54871;SDS011;43914;57.680;11.982;2023-11-19T09:44:38;7.00;;;2.50;;
54871;SDS011;43914;57.680;11.982;2023-11-19T09:47:05;8.20;;;2.90;;
54871;SDS011;43914;57.680;11.982;2023-11-19T09:49:32;7.90;;;2.90;;
54871;SDS011;43914;57.680;11.982;2023-11-19T09:52:00;7.10;;;2.20;;
54871;SDS011;43914;57.680;11.982;2023-11-19T09:54:26;6.60;;;2.50;;
54871;SDS011;43914;57.680;11.982;2023-11-19T09:56:52;7.00;;;2.70;;
54871;SDS011;43914;57.680;11.982;2023-11-19T09:59:18;7.00;;;2.50;;
54871;SDS011;43914;57.680;11.982;2023-11-19T10:01:44;6.10;;;2.30;;
54871;SDS011;43914;57.680;11.982;2023-11-19T10:04:10;8.10;;;2.90;;
54871;SDS011;43914;57.680;11.982;2023-11-19T10:06:41;6.70;;;2.70;;
54871;SDS011;43914;57.680;11.982;2023-11-19T10:09:07;6.30;;;2.70;;
54871;SDS011;43914;57.680;11.982;2023-11-19T10:11:32;7.80;;;2.90;;
54871;SDS011;43914;57.680;11.982;2023-11-19T10:13:58;6.30;;;2.60;;
54871;SDS011;43914;57.680;11.982;2023-11-19T10:16:28;8.40;;;2.90;;
54871;SDS011;43914;57.680;11.982;2023-11-19T10:18:56;7.10;;;2.40;;
54871;SDS011;43914;57.680;11.982;2023-11-19T10:21:21;8.60;;;3.10;;
54871;SDS011;43914;57.680;11.982;2023-11-19T10:23:48;7.10;;;2.80;;
54871;SDS011;43914;57.680;11.982;2023-11-19T10:26:17;7.30;;;2.90;;
54871;SDS011;43914;57.680;11.982;2023-11-19T10:28:45;6.60;;;2.30;;
54871;SDS011;43914;57.680;11.982;2023-11-19T10:31:15;7.60;;;2.90;;
54871;SDS011;43914;57.680;11.982;2023-11-19T10:33:42;6.50;;;2.60;;
54871;SDS011;43914;57.680;11.982;2023-11-19T10:36:10;7.20;;;2.60;;
54871;SDS011;43914;57.680;11.982;2023-11-19T10:38:37;6.70;;;2.40;;
54871;SDS011;43914;57.680;11.982;2023-11-19T10:41:03;7.80;;;2.60;;
54871;SDS011;43914;57.680;11.982;2023-11-19T10:43:30;6.70;;;2.70;;
54871;SDS011;43914;57.680;11.982;2023-11-19T10:46:12;6.90;;;2.80;;
54871;SDS011;43914;57.680;11.982;2023-11-19T10:48:38;8.70;;;2.40;;
54871;SDS011;43914;57.680;11.982;2023-11-19T10:51:05;6.10;;;2.50;;
54871;SDS011;43914;57.680;11.982;2023-11-19T10:53:39;7.50;;;2.80;;
54871;SDS011;43914;57.680;11.982;2023-11-19T10:56:06;9.90;;;2.70;;
54871;SDS011;43914;57.680;11.982;2023-11-19T10:58:36;32.60;;;5.60;;
54871;SDS011;43914;57.680;11.982;2023-11-19T11:01:09;7.30;;;2.90;;
54871;SDS011;43914;57.680;11.982;2023-11-19T11:03:39;6.80;;;2.70;;
54871;SDS011;43914;57.680;11.982;2023-11-19T11:06:05;7.00;;;3.00;;
54871;SDS011;43914;57.680;11.982;2023-11-19T11:08:31;8.40;;;2.80;;
54871;SDS011;43914;57.680;11.982;2023-11-19T11:11:02;8.10;;;3.30;;
54871;SDS011;43914;57.680;11.982;2023-11-19T11:13:29;9.40;;;2.80;;
54871;SDS011;43914;57.680;11.982;2023-11-19T11:15:56;7.00;;;2.80;;
54871;SDS011;43914;57.680;11.982;2023-11-19T11:18:23;7.80;;;3.30;;
54871;SDS011;43914;57.680;11.982;2023-11-19T11:21:12;8.30;;;2.90;;
54871;SDS011;43914;57.680;11.982;2023-11-19T11:32:39;7.70;;;3.40;;
54871;SDS011;43914;57.680;11.982;2023-11-19T11:38:16;9.10;;;3.20;;
54871;SDS011;43914;57.680;11.982;2023-11-19T11:43:48;24.50;;;8.40;;
54871;SDS011;43914;57.680;11.982;2023-11-19T11:49:02;15.80;;;6.20;;
54871;SDS011;43914;57.680;11.982;2023-11-19T11:54:10;13.60;;;5.60;;
54871;SDS011;43914;57.680;11.982;2023-11-19T11:56:39;20.90;;;8.40;;
54871;SDS011;43914;57.680;11.982;2023-11-19T11:59:09;13.50;;;7.60;;
54871;SDS011;43914;57.680;11.982;2023-11-19T12:01:59;8.60;;;3.30;;
54871;SDS011;43914;57.680;11.982;2023-11-19T12:04:27;8.50;;;3.60;;
54871;SDS011;43914;57.680;11.982;2023-11-19T12:07:03;8.30;;;3.70;;
54871;SDS011;43914;57.680;11.982;2023-11-19T12:09:52;8.60;;;3.50;;
54871;SDS011;43914;57.680;11.982;2023-11-19T12:12:36;7.70;;;3.20;;
54871;SDS011;43914;57.680;11.982;2023-11-19T12:15:07;8.30;;;3.50;;
54871;SDS011;43914;57.680;11.982;2023-11-19T12:17:46;8.70;;;3.60;;
54871;SDS011;43914;57.680;11.982;2023-11-19T12:20:18;8.30;;;3.40;;
54871;SDS011;43914;57.680;11.982;2023-11-19T12:22:46;8.60;;;3.20;;
54871;SDS011;43914;57.680;11.982;2023-11-19T12:25:14;7.50;;;3.10;;
54871;SDS011;43914;57.680;11.982;2023-11-19T12:27:50;7.90;;;3.30;;
54871;SDS011;43914;57.680;11.982;2023-11-19T12:30:18;8.10;;;3.50;;
54871;SDS011;43914;57.680;11.982;2023-11-19T12:32:50;10.30;;;3.70;;
54871;SDS011;43914;57.680;11.982;2023-11-19T12:35:16;8.00;;;3.20;;
54871;SDS011;43914;57.680;11.982;2023-11-19T12:37:42;11.80;;;4.40;;
54871;SDS011;43914;57.680;11.982;2023-11-19T12:40:26;8.70;;;3.50;;
54871;SDS011;43914;57.680;11.982;2023-11-19T12:42:53;8.70;;;3.60;;
54871;SDS011;43914;57.680;11.982;2023-11-19T12:45:19;7.90;;;3.10;;
54871;SDS011;43914;57.680;11.982;2023-11-19T12:47:46;7.90;;;3.10;;
54871;SDS011;43914;57.680;11.982;2023-11-19T12:50:13;9.50;;;4.80;;
54871;SDS011;43914;57.680;11.982;2023-11-19T12:52:40;8.80;;;4.10;;
54871;SDS011;43914;57.680;11.982;2023-11-19T12:55:23;9.60;;;3.80;;
54871;SDS011;43914;57.680;11.982;2023-11-19T12:57:51;9.70;;;3.50;;
54871;SDS011;43914;57.680;11.982;2023-11-19T13:00:23;7.50;;;3.50;;
54871;SDS011;43914;57.680;11.982;2023-11-19T13:02:55;10.00;;;4.20;;
54871;SDS011;43914;57.680;11.982;2023-11-19T13:08:13;8.40;;;3.00;;
54871;SDS011;43914;57.680;11.982;2023-11-19T13:13:13;7.40;;;2.90;;
54871;SDS011;43914;57.680;11.982;2023-11-19T13:15:38;9.40;;;3.60;;
54871;SDS011;43914;57.680;11.982;2023-11-19T13:18:05;7.70;;;3.00;;
54871;SDS011;43914;57.680;11.982;2023-11-19T13:20:31;9.00;;;3.10;;
54871;SDS011;43914;57.680;11.982;2023-11-19T13:22:58;10.50;;;3.60;;
54871;SDS011;43914;57.680;11.982;2023-11-19T13:25:26;9.20;;;3.00;;
54871;SDS011;43914;57.680;11.982;2023-11-19T13:27:52;8.00;;;3.20;;
54871;SDS011;43914;57.680;11.982;2023-11-19T13:30:17;9.10;;;3.30;;
54871;SDS011;43914;57.680;11.982;2023-11-19T13:32:43;8.80;;;2.90;;
54871;SDS011;43914;57.680;11.982;2023-11-19T13:35:11;8.30;;;2.70;;
54871;SDS011;43914;57.680;11.982;2023-11-19T13:37:40;7.30;;;3.20;;
54871;SDS011;43914;57.680;11.982;2023-11-19T13:40:06;8.00;;;3.00;;
54871;SDS011;43914;57.680;11.982;2023-11-19T13:42:35;7.40;;;2.80;;
54871;SDS011;43914;57.680;11.982;2023-11-19T13:45:02;7.70;;;2.90;;
54871;SDS011;43914;57.680;11.982;2023-11-19T13:47:28;7.30;;;2.70;;
54871;SDS011;43914;57.680;11.982;2023-11-19T13:49:54;8.10;;;2.80;;
54871;SDS011;43914;57.680;11.982;2023-11-19T13:52:19;7.60;;;2.60;;
54871;SDS011;43914;57.680;11.982;2023-11-19T13:54:44;9.50;;;3.00;;
54871;SDS011;43914;57.680;11.982;2023-11-19T13:57:11;6.80;;;2.50;;
54871;SDS011;43914;57.680;11.982;2023-11-19T13:59:40;7.30;;;2.80;;
54871;SDS011;43914;57.680;11.982;2023-11-19T14:02:06;7.60;;;2.70;;
54871;SDS011;43914;57.680;11.982;2023-11-19T14:04:32;7.30;;;3.10;;
54871;SDS011;43914;57.680;11.982;2023-11-19T14:06:58;7.40;;;2.70;;
54871;SDS011;43914;57.680;11.982;2023-11-19T14:09:24;7.40;;;2.80;;
54871;SDS011;43914;57.680;11.982;2023-11-19T14:11:49;7.90;;;2.70;;
54871;SDS011;43914;57.680;11.982;2023-11-19T14:14:16;8.00;;;2.70;;
54871;SDS011;43914;57.680;11.982;2023-11-19T14:16:42;7.40;;;2.80;;
54871;SDS011;43914;57.680;11.982;2023-11-19T14:19:07;6.80;;;2.70;;
54871;SDS011;43914;57.680;11.982;2023-11-19T14:21:33;7.90;;;3.00;;
54871;SDS011;43914;57.680;11.982;2023-11-19T14:23:58;11.20;;;2.70;;
54871;SDS011;43914;57.680;11.982;2023-11-19T14:26:24;7.90;;;2.80;;
54871;SDS011;43914;57.680;11.982;2023-11-19T14:28:49;7.90;;;2.80;;
54871;SDS011;43914;57.680;11.982;2023-11-19T14:31:14;7.00;;;2.60;;
54871;SDS011;43914;57.680;11.982;2023-11-19T14:33:40;8.40;;;2.70;;
54871;SDS011;43914;57.680;11.982;2023-11-19T14:36:06;7.60;;;2.90;;
54871;SDS011;43914;57.680;11.982;2023-11-19T14:38:32;6.50;;;2.20;;
54871;SDS011;43914;57.680;11.982;2023-11-19T14:40:58;8.40;;;2.80;;
54871;SDS011;43914;57.680;11.982;2023-11-19T14:43:24;7.40;;;2.60;;
54871;SDS011;43914;57.680;11.982;2023-11-19T14:45:51;9.10;;;3.00;;
54871;SDS011;43914;57.680;11.982;2023-11-19T14:48:17;7.80;;;2.80;;
54871;SDS011;43914;57.680;11.982;2023-11-19T14:50:42;7.70;;;2.60;;
54871;SDS011;43914;57.680;11.982;2023-11-19T14:53:10;8.50;;;2.80;;
54871;SDS011;43914;57.680;11.982;2023-11-19T14:55:35;8.60;;;2.40;;
54871;SDS011;43914;57.680;11.982;2023-11-19T14:58:01;7.70;;;2.60;;
54871;SDS011;43914;57.680;11.982;2023-11-19T15:00:26;7.30;;;2.40;;
54871;SDS011;43914;57.680;11.982;2023-11-19T15:02:52;6.60;;;2.60;;